sensor_id;sensor_type;location;lat;lon;timestamp;P1;durP1;ratioP1;P2;durP2;ratioP2
14613;SDS011;7393;51.446;6.800;2023-02-13T00:01:09;14.67;;;9.27;;
14613;SDS011;7393;51.446;6.800;2023-02-13T00:03:36;12.53;;;9.47;;
14613;SDS011;7393;51.446;6.800;2023-02-13T00:06:03;14.73;;;9.87;;
14613;SDS011;7393;51.446;6.800;2023-02-13T00:08:30;13.63;;;9.63;;
14613;SDS011;7393;51.446;6.800;2023-02-13T00:10:56;12.67;;;8.40;;
14613;SDS011;7393;51.446;6.800;2023-02-13T00:13:25;12.97;;;9.23;;
14613;SDS011;7393;51.446;6.800;2023-02-13T00:15:55;11.07;;;8.70;;
14613;SDS011;7393;51.446;6.800;2023-02-13T00:18:22;11.37;;;8.67;;
14613;SDS011;7393;51.446;6.800;2023-02-13T00:20:56;13.63;;;9.53;;
14613;SDS011;7393;51.446;6.800;2023-02-13T00:23:26;15.90;;;9.60;;
14613;SDS011;7393;51.446;6.800;2023-02-13T00:25:55;12.67;;;9.27;;
14613;SDS011;7393;51.446;6.800;2023-02-13T00:28:22;11.43;;;8.40;;
14613;SDS011;7393;51.446;6.800;2023-02-13T00:30:50;12.77;;;9.27;;
14613;SDS011;7393;51.446;6.800;2023-02-13T00:33:17;12.27;;;9.97;;
14613;SDS011;7393;51.446;6.800;2023-02-13T00:35:43;12.03;;;9.20;;
14613;SDS011;7393;51.446;6.800;2023-02-13T00:38:10;13.67;;;9.10;;
14613;SDS011;7393;51.446;6.800;2023-02-13T00:40:37;14.13;;;9.30;;
14613;SDS011;7393;51.446;6.800;2023-02-13T00:43:04;13.97;;;10.37;;
14613;SDS011;7393;51.446;6.800;2023-02-13T00:45:30;14.50;;;10.03;;
14613;SDS011;7393;51.446;6.800;2023-02-13T00:48:01;13.17;;;10.40;;
14613;SDS011;7393;51.446;6.800;2023-02-13T00:50:28;13.30;;;9.53;;
14613;SDS011;7393;51.446;6.800;2023-02-13T00:52:55;15.47;;;10.97;;
14613;SDS011;7393;51.446;6.800;2023-02-13T00:55:22;15.93;;;10.17;;
14613;SDS011;7393;51.446;6.800;2023-02-13T00:57:49;14.60;;;10.53;;
14613;SDS011;7393;51.446;6.800;2023-02-13T01:00:16;14.03;;;10.20;;
14613;SDS011;7393;51.446;6.800;2023-02-13T01:02:43;15.90;;;11.07;;
14613;SDS011;7393;51.446;6.800;2023-02-13T01:05:11;14.20;;;10.73;;
14613;SDS011;7393;51.446;6.800;2023-02-13T01:07:38;15.30;;;11.07;;
14613;SDS011;7393;51.446;6.800;2023-02-13T01:10:05;14.53;;;10.60;;
14613;SDS011;7393;51.446;6.800;2023-02-13T01:12:33;13.70;;;10.17;;
14613;SDS011;7393;51.446;6.800;2023-02-13T01:14:59;15.63;;;10.40;;
14613;SDS011;7393;51.446;6.800;2023-02-13T01:17:26;16.27;;;11.43;;
14613;SDS011;7393;51.446;6.800;2023-02-13T01:19:53;13.53;;;10.40;;
14613;SDS011;7393;51.446;6.800;2023-02-13T01:22:21;14.43;;;10.70;;
14613;SDS011;7393;51.446;6.800;2023-02-13T01:24:48;13.83;;;10.27;;
14613;SDS011;7393;51.446;6.800;2023-02-13T01:27:15;15.03;;;10.43;;
14613;SDS011;7393;51.446;6.800;2023-02-13T01:29:42;15.23;;;10.67;;
14613;SDS011;7393;51.446;6.800;2023-02-13T01:32:09;16.00;;;10.70;;
14613;SDS011;7393;51.446;6.800;2023-02-13T01:34:35;13.70;;;10.20;;
14613;SDS011;7393;51.446;6.800;2023-02-13T01:37:02;16.33;;;10.97;;
14613;SDS011;7393;51.446;6.800;2023-02-13T01:39:30;14.37;;;10.50;;
14613;SDS011;7393;51.446;6.800;2023-02-13T01:41:57;13.90;;;10.40;;
14613;SDS011;7393;51.446;6.800;2023-02-13T01:47:12;13.93;;;9.40;;
14613;SDS011;7393;51.446;6.800;2023-02-13T01:49:41;12.50;;;8.60;;
14613;SDS011;7393;51.446;6.800;2023-02-13T01:52:11;11.90;;;7.63;;
14613;SDS011;7393;51.446;6.800;2023-02-13T01:54:40;13.43;;;7.80;;
14613;SDS011;7393;51.446;6.800;2023-02-13T01:57:09;12.40;;;7.80;;
14613;SDS011;7393;51.446;6.800;2023-02-13T01:59:40;11.47;;;7.43;;
14613;SDS011;7393;51.446;6.800;2023-02-13T02:02:10;9.13;;;7.20;;
14613;SDS011;7393;51.446;6.800;2023-02-13T02:04:37;11.73;;;7.27;;
14613;SDS011;7393;51.446;6.800;2023-02-13T02:07:06;9.30;;;7.50;;
14613;SDS011;7393;51.446;6.800;2023-02-13T02:09:36;10.33;;;7.10;;
14613;SDS011;7393;51.446;6.800;2023-02-13T02:12:07;9.63;;;7.43;;
14613;SDS011;7393;51.446;6.800;2023-02-13T02:14:39;11.33;;;7.97;;
14613;SDS011;7393;51.446;6.800;2023-02-13T02:17:08;10.13;;;7.43;;
14613;SDS011;7393;51.446;6.800;2023-02-13T02:19:36;10.83;;;7.80;;
14613;SDS011;7393;51.446;6.800;2023-02-13T02:22:28;13.70;;;8.23;;
14613;SDS011;7393;51.446;6.800;2023-02-13T02:25:16;12.93;;;8.23;;
14613;SDS011;7393;51.446;6.800;2023-02-13T02:33:58;11.87;;;7.87;;
14613;SDS011;7393;51.446;6.800;2023-02-13T02:36:38;11.53;;;7.50;;
14613;SDS011;7393;51.446;6.800;2023-02-13T02:39:17;11.10;;;7.77;;
14613;SDS011;7393;51.446;6.800;2023-02-13T02:41:57;10.70;;;7.23;;
14613;SDS011;7393;51.446;6.800;2023-02-13T02:44:35;11.00;;;7.20;;
14613;SDS011;7393;51.446;6.800;2023-02-13T02:47:10;13.20;;;7.47;;
14613;SDS011;7393;51.446;6.800;2023-02-13T02:50:06;11.20;;;7.60;;
14613;SDS011;7393;51.446;6.800;2023-02-13T02:52:45;11.63;;;7.93;;
14613;SDS011;7393;51.446;6.800;2023-02-13T02:55:27;10.07;;;7.60;;
14613;SDS011;7393;51.446;6.800;2023-02-13T02:58:02;12.37;;;8.00;;
14613;SDS011;7393;51.446;6.800;2023-02-13T03:00:51;9.97;;;6.70;;
14613;SDS011;7393;51.446;6.800;2023-02-13T03:03:38;9.43;;;7.23;;
14613;SDS011;7393;51.446;6.800;2023-02-13T03:06:25;11.63;;;7.10;;
14613;SDS011;7393;51.446;6.800;2023-02-13T03:08:56;11.43;;;7.00;;
14613;SDS011;7393;51.446;6.800;2023-02-13T03:11:43;9.93;;;7.03;;
14613;SDS011;7393;51.446;6.800;2023-02-13T03:14:31;12.50;;;7.67;;
14613;SDS011;7393;51.446;6.800;2023-02-13T03:16:58;11.40;;;7.47;;
14613;SDS011;7393;51.446;6.800;2023-02-13T03:19:46;10.33;;;6.90;;
14613;SDS011;7393;51.446;6.800;2023-02-13T03:22:43;9.67;;;6.83;;
14613;SDS011;7393;51.446;6.800;2023-02-13T03:25:25;8.20;;;6.23;;
14613;SDS011;7393;51.446;6.800;2023-02-13T03:28:00;8.50;;;5.97;;
14613;SDS011;7393;51.446;6.800;2023-02-13T03:30:55;9.53;;;6.40;;
14613;SDS011;7393;51.446;6.800;2023-02-13T03:33:29;9.90;;;6.33;;
14613;SDS011;7393;51.446;6.800;2023-02-13T03:36:06;8.30;;;5.80;;
14613;SDS011;7393;51.446;6.800;2023-02-13T03:39:04;9.13;;;5.83;;
14613;SDS011;7393;51.446;6.800;2023-02-13T03:41:35;9.67;;;5.83;;
14613;SDS011;7393;51.446;6.800;2023-02-13T03:44:09;10.43;;;6.00;;
14613;SDS011;7393;51.446;6.800;2023-02-13T03:46:41;9.87;;;5.77;;
14613;SDS011;7393;51.446;6.800;2023-02-13T03:49:14;8.00;;;5.80;;
14613;SDS011;7393;51.446;6.800;2023-02-13T03:52:04;10.23;;;5.63;;
14613;SDS011;7393;51.446;6.800;2023-02-13T03:54:37;7.97;;;6.10;;
14613;SDS011;7393;51.446;6.800;2023-02-13T03:57:24;7.10;;;5.30;;
14613;SDS011;7393;51.446;6.800;2023-02-13T04:00:13;9.23;;;6.00;;
14613;SDS011;7393;51.446;6.800;2023-02-13T04:02:45;7.57;;;5.30;;
14613;SDS011;7393;51.446;6.800;2023-02-13T04:05:18;10.50;;;5.87;;
14613;SDS011;7393;51.446;6.800;2023-02-13T04:07:47;7.87;;;5.03;;
14613;SDS011;7393;51.446;6.800;2023-02-13T04:10:16;7.93;;;5.73;;
14613;SDS011;7393;51.446;6.800;2023-02-13T04:12:47;8.53;;;6.13;;
14613;SDS011;7393;51.446;6.800;2023-02-13T04:15:20;7.70;;;6.10;;
14613;SDS011;7393;51.446;6.800;2023-02-13T04:17:52;9.20;;;6.00;;
14613;SDS011;7393;51.446;6.800;2023-02-13T04:20:38;8.13;;;5.80;;
14613;SDS011;7393;51.446;6.800;2023-02-13T04:23:05;8.27;;;6.57;;
14613;SDS011;7393;51.446;6.800;2023-02-13T04:25:35;9.10;;;5.93;;
14613;SDS011;7393;51.446;6.800;2023-02-13T04:28:04;9.67;;;5.77;;
14613;SDS011;7393;51.446;6.800;2023-02-13T04:30:31;7.27;;;5.47;;
14613;SDS011;7393;51.446;6.800;2023-02-13T04:32:58;9.07;;;5.90;;
14613;SDS011;7393;51.446;6.800;2023-02-13T04:35:25;9.30;;;5.73;;
14613;SDS011;7393;51.446;6.800;2023-02-13T04:37:52;7.27;;;5.20;;
14613;SDS011;7393;51.446;6.800;2023-02-13T04:40:19;8.40;;;6.00;;
14613;SDS011;7393;51.446;6.800;2023-02-13T04:42:47;8.37;;;5.60;;
14613;SDS011;7393;51.446;6.800;2023-02-13T04:45:14;7.97;;;6.10;;
14613;SDS011;7393;51.446;6.800;2023-02-13T04:47:41;9.47;;;6.23;;
14613;SDS011;7393;51.446;6.800;2023-02-13T04:50:09;10.97;;;6.70;;
14613;SDS011;7393;51.446;6.800;2023-02-13T04:52:35;9.43;;;6.27;;
14613;SDS011;7393;51.446;6.800;2023-02-13T04:55:02;9.07;;;5.80;;
14613;SDS011;7393;51.446;6.800;2023-02-13T04:57:29;9.27;;;6.13;;
14613;SDS011;7393;51.446;6.800;2023-02-13T04:59:57;9.77;;;6.10;;
14613;SDS011;7393;51.446;6.800;2023-02-13T05:02:24;8.97;;;6.30;;
14613;SDS011;7393;51.446;6.800;2023-02-13T05:04:51;8.83;;;6.07;;
14613;SDS011;7393;51.446;6.800;2023-02-13T05:07:18;14.17;;;6.77;;
14613;SDS011;7393;51.446;6.800;2023-02-13T05:09:45;11.80;;;7.63;;
14613;SDS011;7393;51.446;6.800;2023-02-13T05:12:11;10.00;;;6.33;;
14613;SDS011;7393;51.446;6.800;2023-02-13T05:14:38;9.47;;;7.20;;
14613;SDS011;7393;51.446;6.800;2023-02-13T05:17:06;9.93;;;6.77;;
14613;SDS011;7393;51.446;6.800;2023-02-13T05:19:33;10.37;;;6.97;;
14613;SDS011;7393;51.446;6.800;2023-02-13T05:22:00;10.23;;;6.83;;
14613;SDS011;7393;51.446;6.800;2023-02-13T05:24:44;11.00;;;6.83;;
14613;SDS011;7393;51.446;6.800;2023-02-13T05:27:11;10.43;;;6.70;;
14613;SDS011;7393;51.446;6.800;2023-02-13T05:29:38;11.67;;;7.30;;
14613;SDS011;7393;51.446;6.800;2023-02-13T05:32:04;11.00;;;7.30;;
14613;SDS011;7393;51.446;6.800;2023-02-13T05:34:32;11.60;;;7.47;;
14613;SDS011;7393;51.446;6.800;2023-02-13T05:36:59;11.60;;;7.47;;
14613;SDS011;7393;51.446;6.800;2023-02-13T05:39:26;12.63;;;8.10;;
14613;SDS011;7393;51.446;6.800;2023-02-13T05:41:53;10.07;;;7.33;;
14613;SDS011;7393;51.446;6.800;2023-02-13T05:44:20;10.37;;;7.97;;
14613;SDS011;7393;51.446;6.800;2023-02-13T05:46:46;11.87;;;8.00;;
14613;SDS011;7393;51.446;6.800;2023-02-13T05:49:15;11.90;;;7.97;;
14613;SDS011;7393;51.446;6.800;2023-02-13T05:51:41;10.80;;;8.33;;
14613;SDS011;7393;51.446;6.800;2023-02-13T05:54:10;13.30;;;7.63;;
14613;SDS011;7393;51.446;6.800;2023-02-13T05:56:37;13.13;;;8.97;;
14613;SDS011;7393;51.446;6.800;2023-02-13T05:59:04;12.23;;;7.70;;
14613;SDS011;7393;51.446;6.800;2023-02-13T06:01:31;10.93;;;6.87;;
14613;SDS011;7393;51.446;6.800;2023-02-13T06:03:58;10.83;;;7.20;;
14613;SDS011;7393;51.446;6.800;2023-02-13T06:06:26;10.83;;;7.30;;
14613;SDS011;7393;51.446;6.800;2023-02-13T06:08:53;10.90;;;7.33;;
14613;SDS011;7393;51.446;6.800;2023-02-13T06:11:19;10.70;;;7.17;;
14613;SDS011;7393;51.446;6.800;2023-02-13T06:13:46;12.47;;;7.93;;
14613;SDS011;7393;51.446;6.800;2023-02-13T06:16:13;12.00;;;7.80;;
14613;SDS011;7393;51.446;6.800;2023-02-13T06:18:40;10.10;;;7.10;;
14613;SDS011;7393;51.446;6.800;2023-02-13T06:21:07;9.70;;;7.33;;
14613;SDS011;7393;51.446;6.800;2023-02-13T06:23:35;10.17;;;7.20;;
14613;SDS011;7393;51.446;6.800;2023-02-13T06:26:02;10.07;;;7.47;;
14613;SDS011;7393;51.446;6.800;2023-02-13T06:28:30;9.60;;;6.93;;
14613;SDS011;7393;51.446;6.800;2023-02-13T06:30:57;9.93;;;7.07;;
14613;SDS011;7393;51.446;6.800;2023-02-13T06:33:23;12.47;;;7.80;;
14613;SDS011;7393;51.446;6.800;2023-02-13T06:35:50;10.80;;;7.63;;
14613;SDS011;7393;51.446;6.800;2023-02-13T06:38:17;11.07;;;8.00;;
14613;SDS011;7393;51.446;6.800;2023-02-13T06:40:46;11.27;;;7.80;;
14613;SDS011;7393;51.446;6.800;2023-02-13T06:43:14;9.83;;;7.70;;
14613;SDS011;7393;51.446;6.800;2023-02-13T06:45:42;11.07;;;7.30;;
14613;SDS011;7393;51.446;6.800;2023-02-13T06:48:11;10.83;;;7.77;;
14613;SDS011;7393;51.446;6.800;2023-02-13T06:50:38;10.37;;;7.40;;
14613;SDS011;7393;51.446;6.800;2023-02-13T06:53:05;10.30;;;7.70;;
14613;SDS011;7393;51.446;6.800;2023-02-13T06:55:31;10.53;;;7.10;;
14613;SDS011;7393;51.446;6.800;2023-02-13T06:58:00;10.87;;;7.43;;
14613;SDS011;7393;51.446;6.800;2023-02-13T07:00:26;10.70;;;7.30;;
14613;SDS011;7393;51.446;6.800;2023-02-13T07:02:53;10.80;;;7.67;;
14613;SDS011;7393;51.446;6.800;2023-02-13T07:05:20;10.20;;;7.50;;
14613;SDS011;7393;51.446;6.800;2023-02-13T07:07:46;12.27;;;7.70;;
14613;SDS011;7393;51.446;6.800;2023-02-13T07:10:13;10.27;;;7.50;;
14613;SDS011;7393;51.446;6.800;2023-02-13T07:12:40;9.43;;;6.50;;
14613;SDS011;7393;51.446;6.800;2023-02-13T07:15:08;9.90;;;7.60;;
14613;SDS011;7393;51.446;6.800;2023-02-13T07:17:36;11.97;;;7.50;;
14613;SDS011;7393;51.446;6.800;2023-02-13T07:20:03;9.93;;;7.20;;
14613;SDS011;7393;51.446;6.800;2023-02-13T07:22:31;10.03;;;6.97;;
14613;SDS011;7393;51.446;6.800;2023-02-13T07:24:58;10.67;;;7.10;;
14613;SDS011;7393;51.446;6.800;2023-02-13T07:27:26;13.23;;;8.23;;
14613;SDS011;7393;51.446;6.800;2023-02-13T07:29:53;11.70;;;7.77;;
14613;SDS011;7393;51.446;6.800;2023-02-13T07:32:23;10.00;;;7.03;;
14613;SDS011;7393;51.446;6.800;2023-02-13T07:34:50;11.67;;;7.47;;
14613;SDS011;7393;51.446;6.800;2023-02-13T07:37:17;10.47;;;7.37;;
14613;SDS011;7393;51.446;6.800;2023-02-13T07:39:43;13.33;;;7.67;;
14613;SDS011;7393;51.446;6.800;2023-02-13T07:42:10;12.77;;;7.63;;
14613;SDS011;7393;51.446;6.800;2023-02-13T07:44:37;13.67;;;7.13;;
14613;SDS011;7393;51.446;6.800;2023-02-13T07:47:04;11.00;;;8.07;;
14613;SDS011;7393;51.446;6.800;2023-02-13T07:49:32;11.17;;;7.43;;
14613;SDS011;7393;51.446;6.800;2023-02-13T07:52:00;11.80;;;8.40;;
14613;SDS011;7393;51.446;6.800;2023-02-13T07:54:27;13.33;;;8.17;;
14613;SDS011;7393;51.446;6.800;2023-02-13T07:56:54;13.13;;;8.47;;
14613;SDS011;7393;51.446;6.800;2023-02-13T07:59:21;13.53;;;8.70;;
14613;SDS011;7393;51.446;6.800;2023-02-13T08:01:48;15.43;;;9.47;;
14613;SDS011;7393;51.446;6.800;2023-02-13T08:04:14;13.53;;;9.40;;
14613;SDS011;7393;51.446;6.800;2023-02-13T08:06:43;14.13;;;9.37;;
14613;SDS011;7393;51.446;6.800;2023-02-13T08:09:12;12.97;;;9.77;;
14613;SDS011;7393;51.446;6.800;2023-02-13T08:12:03;13.00;;;9.77;;
14613;SDS011;7393;51.446;6.800;2023-02-13T08:14:32;15.53;;;10.67;;
14613;SDS011;7393;51.446;6.800;2023-02-13T08:16:58;14.30;;;10.20;;
14613;SDS011;7393;51.446;6.800;2023-02-13T08:19:26;16.00;;;10.63;;
14613;SDS011;7393;51.446;6.800;2023-02-13T08:21:54;13.47;;;9.73;;
14613;SDS011;7393;51.446;6.800;2023-02-13T08:24:22;14.13;;;9.80;;
14613;SDS011;7393;51.446;6.800;2023-02-13T08:26:49;15.13;;;11.00;;
14613;SDS011;7393;51.446;6.800;2023-02-13T08:29:15;15.63;;;11.50;;
14613;SDS011;7393;51.446;6.800;2023-02-13T08:31:42;15.73;;;10.17;;
14613;SDS011;7393;51.446;6.800;2023-02-13T08:34:09;16.83;;;9.90;;
14613;SDS011;7393;51.446;6.800;2023-02-13T08:36:36;15.57;;;10.07;;
14613;SDS011;7393;51.446;6.800;2023-02-13T08:39:04;16.23;;;9.50;;
14613;SDS011;7393;51.446;6.800;2023-02-13T08:41:31;15.33;;;10.90;;
14613;SDS011;7393;51.446;6.800;2023-02-13T08:43:58;13.17;;;9.90;;
14613;SDS011;7393;51.446;6.800;2023-02-13T08:46:25;14.33;;;10.13;;
14613;SDS011;7393;51.446;6.800;2023-02-13T08:48:53;14.27;;;10.27;;
14613;SDS011;7393;51.446;6.800;2023-02-13T08:51:20;13.33;;;10.13;;
14613;SDS011;7393;51.446;6.800;2023-02-13T08:53:47;14.97;;;10.23;;
14613;SDS011;7393;51.446;6.800;2023-02-13T08:56:15;13.77;;;10.03;;
14613;SDS011;7393;51.446;6.800;2023-02-13T08:58:42;15.77;;;10.57;;
14613;SDS011;7393;51.446;6.800;2023-02-13T09:01:09;14.47;;;10.10;;
14613;SDS011;7393;51.446;6.800;2023-02-13T09:03:36;12.13;;;9.43;;
14613;SDS011;7393;51.446;6.800;2023-02-13T09:06:03;13.07;;;8.93;;
14613;SDS011;7393;51.446;6.800;2023-02-13T09:08:30;12.03;;;9.27;;
14613;SDS011;7393;51.446;6.800;2023-02-13T09:10:57;13.27;;;8.97;;
14613;SDS011;7393;51.446;6.800;2023-02-13T09:13:27;13.03;;;8.93;;
14613;SDS011;7393;51.446;6.800;2023-02-13T09:15:57;12.63;;;8.43;;
14613;SDS011;7393;51.446;6.800;2023-02-13T09:18:25;11.63;;;9.07;;
14613;SDS011;7393;51.446;6.800;2023-02-13T09:21:02;13.07;;;8.67;;
14613;SDS011;7393;51.446;6.800;2023-02-13T09:23:30;11.73;;;8.30;;
14613;SDS011;7393;51.446;6.800;2023-02-13T09:25:59;10.30;;;7.77;;
14613;SDS011;7393;51.446;6.800;2023-02-13T09:28:28;15.73;;;8.37;;
14613;SDS011;7393;51.446;6.800;2023-02-13T09:30:55;11.40;;;8.53;;
14613;SDS011;7393;51.446;6.800;2023-02-13T09:33:22;16.93;;;9.20;;
14613;SDS011;7393;51.446;6.800;2023-02-13T09:35:49;12.73;;;8.27;;
14613;SDS011;7393;51.446;6.800;2023-02-13T09:38:16;11.07;;;8.27;;
14613;SDS011;7393;51.446;6.800;2023-02-13T09:40:44;12.10;;;8.57;;
14613;SDS011;7393;51.446;6.800;2023-02-13T09:43:16;9.77;;;7.73;;
14613;SDS011;7393;51.446;6.800;2023-02-13T09:45:49;13.77;;;7.83;;
14613;SDS011;7393;51.446;6.800;2023-02-13T09:48:21;12.03;;;8.27;;
14613;SDS011;7393;51.446;6.800;2023-02-13T09:50:53;12.63;;;7.43;;
14613;SDS011;7393;51.446;6.800;2023-02-13T09:53:21;13.97;;;7.80;;
14613;SDS011;7393;51.446;6.800;2023-02-13T09:55:51;11.80;;;7.53;;
14613;SDS011;7393;51.446;6.800;2023-02-13T09:58:27;10.20;;;7.43;;
14613;SDS011;7393;51.446;6.800;2023-02-13T10:01:02;12.27;;;7.80;;
14613;SDS011;7393;51.446;6.800;2023-02-13T10:03:31;11.03;;;7.13;;
14613;SDS011;7393;51.446;6.800;2023-02-13T10:06:04;11.67;;;7.90;;
14613;SDS011;7393;51.446;6.800;2023-02-13T10:08:36;9.70;;;7.23;;
14613;SDS011;7393;51.446;6.800;2023-02-13T10:11:23;10.43;;;7.60;;
14613;SDS011;7393;51.446;6.800;2023-02-13T10:14:11;8.43;;;6.87;;
14613;SDS011;7393;51.446;6.800;2023-02-13T10:16:44;12.83;;;7.27;;
14613;SDS011;7393;51.446;6.800;2023-02-13T10:19:15;10.50;;;7.60;;
14613;SDS011;7393;51.446;6.800;2023-02-13T10:21:53;10.63;;;7.33;;
14613;SDS011;7393;51.446;6.800;2023-02-13T10:24:26;9.93;;;6.90;;
14613;SDS011;7393;51.446;6.800;2023-02-13T10:26:59;9.37;;;6.87;;
14613;SDS011;7393;51.446;6.800;2023-02-13T10:29:35;9.00;;;7.00;;
14613;SDS011;7393;51.446;6.800;2023-02-13T10:32:27;11.47;;;6.77;;
14613;SDS011;7393;51.446;6.800;2023-02-13T10:35:03;10.57;;;7.20;;
14613;SDS011;7393;51.446;6.800;2023-02-13T10:37:43;9.00;;;7.37;;
14613;SDS011;7393;51.446;6.800;2023-02-13T10:40:15;11.10;;;7.47;;
14613;SDS011;7393;51.446;6.800;2023-02-13T10:42:43;8.90;;;7.50;;
14613;SDS011;7393;51.446;6.800;2023-02-13T10:45:18;9.43;;;7.23;;
14613;SDS011;7393;51.446;6.800;2023-02-13T10:48:00;9.37;;;6.97;;
14613;SDS011;7393;51.446;6.800;2023-02-13T10:50:35;10.53;;;7.63;;
14613;SDS011;7393;51.446;6.800;2023-02-13T10:53:10;12.93;;;7.17;;
14613;SDS011;7393;51.446;6.800;2023-02-13T10:55:48;9.57;;;7.43;;
14613;SDS011;7393;51.446;6.800;2023-02-13T10:58:23;9.70;;;6.73;;
14613;SDS011;7393;51.446;6.800;2023-02-13T11:01:01;9.87;;;7.80;;
14613;SDS011;7393;51.446;6.800;2023-02-13T11:03:32;9.40;;;7.40;;
14613;SDS011;7393;51.446;6.800;2023-02-13T11:05:58;8.90;;;6.50;;
14613;SDS011;7393;51.446;6.800;2023-02-13T11:08:31;9.97;;;7.40;;
14613;SDS011;7393;51.446;6.800;2023-02-13T11:10:59;8.67;;;7.00;;
14613;SDS011;7393;51.446;6.800;2023-02-13T11:13:27;9.80;;;7.47;;
14613;SDS011;7393;51.446;6.800;2023-02-13T11:15:56;8.87;;;7.10;;
14613;SDS011;7393;51.446;6.800;2023-02-13T11:18:25;9.20;;;6.83;;
14613;SDS011;7393;51.446;6.800;2023-02-13T11:20:59;8.57;;;6.87;;
14613;SDS011;7393;51.446;6.800;2023-02-13T11:23:38;7.90;;;6.47;;
14613;SDS011;7393;51.446;6.800;2023-02-13T11:26:09;8.13;;;6.10;;
14613;SDS011;7393;51.446;6.800;2023-02-13T11:28:38;7.90;;;6.20;;
14613;SDS011;7393;51.446;6.800;2023-02-13T11:31:18;9.57;;;6.43;;
14613;SDS011;7393;51.446;6.800;2023-02-13T11:33:48;8.97;;;6.33;;
14613;SDS011;7393;51.446;6.800;2023-02-13T11:36:21;7.57;;;6.27;;
14613;SDS011;7393;51.446;6.800;2023-02-13T11:38:56;8.67;;;6.47;;
14613;SDS011;7393;51.446;6.800;2023-02-13T11:41:24;8.40;;;6.53;;
14613;SDS011;7393;51.446;6.800;2023-02-13T11:43:52;7.53;;;6.20;;
14613;SDS011;7393;51.446;6.800;2023-02-13T11:46:25;9.03;;;6.50;;
14613;SDS011;7393;51.446;6.800;2023-02-13T11:48:57;9.73;;;6.10;;
14613;SDS011;7393;51.446;6.800;2023-02-13T11:51:41;7.83;;;5.90;;
14613;SDS011;7393;51.446;6.800;2023-02-13T11:54:27;8.63;;;6.60;;
14613;SDS011;7393;51.446;6.800;2023-02-13T11:56:58;9.23;;;5.73;;
14613;SDS011;7393;51.446;6.800;2023-02-13T11:59:29;9.10;;;6.23;;
14613;SDS011;7393;51.446;6.800;2023-02-13T12:02:01;7.70;;;6.10;;
14613;SDS011;7393;51.446;6.800;2023-02-13T12:04:37;8.80;;;6.30;;
14613;SDS011;7393;51.446;6.800;2023-02-13T12:07:11;7.83;;;5.80;;
14613;SDS011;7393;51.446;6.800;2023-02-13T12:09:41;6.47;;;5.57;;
14613;SDS011;7393;51.446;6.800;2023-02-13T12:12:10;7.13;;;5.77;;
14613;SDS011;7393;51.446;6.800;2023-02-13T12:14:43;8.60;;;6.00;;
14613;SDS011;7393;51.446;6.800;2023-02-13T12:17:11;9.40;;;6.10;;
14613;SDS011;7393;51.446;6.800;2023-02-13T12:19:42;7.80;;;5.47;;
14613;SDS011;7393;51.446;6.800;2023-02-13T12:28:10;6.17;;;5.53;;
14613;SDS011;7393;51.446;6.800;2023-02-13T12:30:51;7.37;;;5.50;;
14613;SDS011;7393;51.446;6.800;2023-02-13T12:33:48;6.07;;;4.80;;
14613;SDS011;7393;51.446;6.800;2023-02-13T12:36:35;6.37;;;5.30;;
14613;SDS011;7393;51.446;6.800;2023-02-13T12:39:17;6.00;;;5.33;;
14613;SDS011;7393;51.446;6.800;2023-02-13T12:41:56;6.03;;;5.23;;
14613;SDS011;7393;51.446;6.800;2023-02-13T12:44:47;7.80;;;4.73;;
14613;SDS011;7393;51.446;6.800;2023-02-13T12:47:26;6.57;;;4.87;;
14613;SDS011;7393;51.446;6.800;2023-02-13T12:50:07;5.87;;;4.70;;
14613;SDS011;7393;51.446;6.800;2023-02-13T12:52:53;7.70;;;5.37;;
14613;SDS011;7393;51.446;6.800;2023-02-13T12:58:31;4.77;;;4.17;;
14613;SDS011;7393;51.446;6.800;2023-02-13T13:01:08;6.37;;;4.90;;
14613;SDS011;7393;51.446;6.800;2023-02-13T13:03:47;6.03;;;4.77;;
14613;SDS011;7393;51.446;6.800;2023-02-13T13:06:28;6.00;;;4.67;;
14613;SDS011;7393;51.446;6.800;2023-02-13T13:12:17;5.63;;;4.10;;
14613;SDS011;7393;51.446;6.800;2023-02-13T13:14:53;5.33;;;4.50;;
14613;SDS011;7393;51.446;6.800;2023-02-13T13:17:31;6.33;;;4.33;;
14613;SDS011;7393;51.446;6.800;2023-02-13T13:20:15;4.97;;;3.93;;
14613;SDS011;7393;51.446;6.800;2023-02-13T13:23:04;5.67;;;4.10;;
14613;SDS011;7393;51.446;6.800;2023-02-13T13:25:38;5.60;;;4.10;;
14613;SDS011;7393;51.446;6.800;2023-02-13T13:28:14;5.60;;;3.93;;
14613;SDS011;7393;51.446;6.800;2023-02-13T13:30:44;7.00;;;3.70;;
14613;SDS011;7393;51.446;6.800;2023-02-13T13:33:13;7.27;;;3.70;;
14613;SDS011;7393;51.446;6.800;2023-02-13T13:35:42;5.57;;;3.20;;
14613;SDS011;7393;51.446;6.800;2023-02-13T13:38:19;3.50;;;3.20;;
14613;SDS011;7393;51.446;6.800;2023-02-13T13:40:54;4.70;;;3.47;;
14613;SDS011;7393;51.446;6.800;2023-02-13T13:43:27;4.87;;;3.40;;
14613;SDS011;7393;51.446;6.800;2023-02-13T13:46:06;3.97;;;3.47;;
14613;SDS011;7393;51.446;6.800;2023-02-13T13:48:45;4.27;;;2.93;;
14613;SDS011;7393;51.446;6.800;2023-02-13T13:51:21;4.97;;;3.53;;
14613;SDS011;7393;51.446;6.800;2023-02-13T13:57:03;4.67;;;3.40;;
14613;SDS011;7393;51.446;6.800;2023-02-13T13:59:57;3.93;;;3.50;;
14613;SDS011;7393;51.446;6.800;2023-02-13T14:02:34;5.03;;;3.37;;
14613;SDS011;7393;51.446;6.800;2023-02-13T14:05:18;3.93;;;3.30;;
14613;SDS011;7393;51.446;6.800;2023-02-13T14:07:50;4.90;;;2.87;;
14613;SDS011;7393;51.446;6.800;2023-02-13T14:13:34;4.10;;;3.10;;
14613;SDS011;7393;51.446;6.800;2023-02-13T14:16:05;5.53;;;2.67;;
14613;SDS011;7393;51.446;6.800;2023-02-13T14:18:36;3.87;;;3.30;;
14613;SDS011;7393;51.446;6.800;2023-02-13T14:21:04;7.03;;;3.20;;
14613;SDS011;7393;51.446;6.800;2023-02-13T14:23:37;4.40;;;2.77;;
14613;SDS011;7393;51.446;6.800;2023-02-13T14:26:30;4.00;;;3.10;;
14613;SDS011;7393;51.446;6.800;2023-02-13T14:34:51;3.93;;;2.60;;
14613;SDS011;7393;51.446;6.800;2023-02-13T14:37:23;4.17;;;2.80;;
14613;SDS011;7393;51.446;6.800;2023-02-13T14:40:12;4.17;;;2.57;;
14613;SDS011;7393;51.446;6.800;2023-02-13T14:42:57;3.83;;;2.60;;
14613;SDS011;7393;51.446;6.800;2023-02-13T14:45:32;3.03;;;2.30;;
14613;SDS011;7393;51.446;6.800;2023-02-13T14:48:10;3.47;;;2.67;;
14613;SDS011;7393;51.446;6.800;2023-02-13T14:50:42;4.43;;;2.97;;
14613;SDS011;7393;51.446;6.800;2023-02-13T14:53:15;3.70;;;2.77;;
14613;SDS011;7393;51.446;6.800;2023-02-13T14:55:46;3.70;;;2.80;;
14613;SDS011;7393;51.446;6.800;2023-02-13T14:58:19;4.50;;;2.60;;
14613;SDS011;7393;51.446;6.800;2023-02-13T15:00:51;5.10;;;2.67;;
14613;SDS011;7393;51.446;6.800;2023-02-13T15:03:27;3.63;;;2.57;;
14613;SDS011;7393;51.446;6.800;2023-02-13T15:05:56;4.33;;;2.70;;
14613;SDS011;7393;51.446;6.800;2023-02-13T15:08:28;3.37;;;2.50;;
14613;SDS011;7393;51.446;6.800;2023-02-13T15:10:59;3.23;;;2.10;;
14613;SDS011;7393;51.446;6.800;2023-02-13T15:13:30;3.07;;;2.60;;
14613;SDS011;7393;51.446;6.800;2023-02-13T15:16:00;3.03;;;2.67;;
14613;SDS011;7393;51.446;6.800;2023-02-13T15:18:32;3.17;;;2.37;;
14613;SDS011;7393;51.446;6.800;2023-02-13T15:21:04;3.50;;;2.13;;
14613;SDS011;7393;51.446;6.800;2023-02-13T15:23:32;3.33;;;2.20;;
14613;SDS011;7393;51.446;6.800;2023-02-13T15:25:59;3.63;;;2.00;;
14613;SDS011;7393;51.446;6.800;2023-02-13T15:28:28;2.80;;;1.90;;
14613;SDS011;7393;51.446;6.800;2023-02-13T15:30:56;4.90;;;2.13;;
14613;SDS011;7393;51.446;6.800;2023-02-13T15:33:25;2.87;;;1.97;;
14613;SDS011;7393;51.446;6.800;2023-02-13T15:35:54;3.83;;;2.17;;
14613;SDS011;7393;51.446;6.800;2023-02-13T15:38:24;2.37;;;1.83;;
14613;SDS011;7393;51.446;6.800;2023-02-13T15:40:52;2.90;;;1.80;;
14613;SDS011;7393;51.446;6.800;2023-02-13T15:43:22;2.20;;;1.80;;
14613;SDS011;7393;51.446;6.800;2023-02-13T15:45:55;2.43;;;1.80;;
14613;SDS011;7393;51.446;6.800;2023-02-13T15:48:26;1.80;;;1.70;;
14613;SDS011;7393;51.446;6.800;2023-02-13T15:50:56;2.53;;;2.10;;
14613;SDS011;7393;51.446;6.800;2023-02-13T15:53:23;3.13;;;2.10;;